Latest Coastal Weather Observations for Hobart Airport

IDT60701

Issued at 11:02 am EST Monday 4 May 2026 (issued every 10 minutes, with the page automatically refreshed every 10 minutes)

About coastal observations | Map of coastal stations | Coastal observations for TAS | Marine services | Other Formats
Station Details ID: 094250 Name: HOBART AIRPORT Lat: -42.83 Lon: 147.51 Height: 2.2 m
Data from the previous 72 hours. | See also: Recent months at Hobart Airport
Date/Time
EST
Wind Sea
Height
m
Swell Vis
km
Cloud Weather Temp
°C
Press
MSL
hPa
Rain since
9am
mm
Dir  Spd
kts
Gust
kts
Height
m
Period
s
Dir
04/11:00am NNW 7 9 - - - - 10 Clear - 19.4 1009.1 0.0
04/10:30am NW 7 9 - - - - 10 - - 17.8 1009.2 0.0
04/10:00am NW 9 11 - - - - 10 Partly cloudy - 16.4 1009.2 0.0
04/09:30am NW 8 10 - - - - 10 Cloudy - 15.3 1009.6 0.0
04/09:00am NW 8 13 - - - - 10 Partly cloudy - 13.3 1009.7 0.6
04/08:30am WNW 10 12 - - - - 10 Mostly clear - 14.0 1009.8 0.6
04/08:00am NW 7 9 - - - - 10 - - 13.5 1009.7 0.6
04/07:30am W 5 6 - - - - 10 - - 11.5 1009.4 0.6
04/07:00am NW 4 5 - - - - 10 - - 13.0 1009.1 0.6
04/06:30am SE 2 5 - - - - 10 - - 12.8 1008.6 0.6
04/06:00am NW 7 9 - - - - 10 Cloudy - 14.4 1008.4 0.6
04/05:30am NW 7 11 - - - - 10 - - 14.9 1008.4 0.6
04/05:00am NW 9 14 - - - - 10 - - 14.5 1008.5 0.6
04/04:30am WNW 6 7 - - - - 10 - - 14.2 1008.1 0.6
04/04:00am NW 6 7 - - - - 10 - - 14.0 1007.9 0.6
04/03:30am W 5 7 - - - - 10 - - 14.3 1007.7 0.6
04/03:00am WNW 4 6 - - - - 10 Cloudy - 14.8 1007.9 0.6
04/02:30am N 3 6 - - - - 10 Partly cloudy - 16.0 1008.2 0.6
04/02:00am NNW 5 7 - - - - 10 Mostly clear - 15.0 1008.6 0.6
04/01:30am CALM 0 4 - - - - 10 - - 15.1 1008.3 0.6
04/01:00am NNW 4 6 - - - - 10 - - 16.9 1008.4 0.6
04/12:30am N 4 6 - - - - 10 Partly cloudy - 16.7 1008.7 0.6
04/12:00am N 6 8 - - - - 10 Mostly cloudy - 17.2 1008.9 0.6
 
Date/Time
EST
Wind Sea
Height
m
Swell Vis
km
Cloud Weather Temp
°C
Press
MSL
hPa
Rain since
9am
mm
Dir  Spd
kts
Gust
kts
Height
m
Period
s
Dir
03/11:30pm N 4 6 - - - - 10 Partly cloudy - 17.3 1009.4 0.6
03/11:00pm N 4 6 - - - - 10 Mostly clear - 17.3 1009.6 0.6
03/10:30pm NNW 5 8 - - - - 10 Mostly clear - 17.8 1009.3 0.6
03/10:00pm NNW 8 13 - - - - 10 - - 18.2 1009.4 0.6
03/09:30pm WNW 5 7 - - - - 10 Partly cloudy - 15.8 1009.1 0.6
03/09:00pm NW 5 7 - - - - 10 Cloudy - 17.0 1009.4 0.6
03/08:30pm NNW 7 10 - - - - 10 Mostly clear - 16.9 1009.4 0.6
03/08:00pm N 7 10 - - - - 10 Mostly clear - 17.1 1009.2 0.6
03/07:30pm NW 5 8 - - - - 10 - - 17.1 1009.1 0.6
03/07:00pm NW 5 7 - - - - 10 - - 16.9 1009.0 0.6
03/06:30pm N 7 9 - - - - 10 - - 17.5 1009.1 0.6
03/06:00pm NW 8 11 - - - - 10 Cloudy Rain 17.9 1009.0 0.6
03/05:30pm W 4 7 - - - - 10 Partly cloudy - 15.6 1009.1 0.6
03/05:00pm S 2 4 - - - - 10 Partly cloudy - 15.6 1009.3 0.6
03/04:30pm SW 2 4 - - - - 10 Partly cloudy - 16.1 1009.4 0.2
03/04:00pm CALM 0 0 - - - - 10 Partly cloudy - 16.1 1009.3 0.2
03/03:30pm SSE 3 4 - - - - 10 Mostly clear - 16.4 1009.6 0.2
03/03:00pm SSE 4 6 - - - - 10 Mostly cloudy Rain 16.1 1009.6 0.2
03/02:30pm NW 1 4 - - - - 10 Cloudy - 16.9 1009.7 0.2
03/02:00pm CALM 0 0 - - - - 10 Cloudy - 18.7 1010.3 0.0
03/01:30pm CALM 0 0 - - - - 10 Cloudy - 19.2 1010.6 0.0
03/01:00pm NW 5 7 - - - - 10 Mostly clear - 19.2 1010.9 0.0
03/12:30pm CALM 0 0 - - - - 10 Mostly clear - 20.4 1011.1 0.0
03/12:00pm W 3 4 - - - - 10 Mostly cloudy - 18.9 1012.1 0.0
03/11:30am WNW 2 4 - - - - 10 Partly cloudy - 18.4 1012.8 0.0
03/11:00am WNW 3 4 - - - - 10 Cloudy - 18.0 1013.2 0.0
03/10:30am WNW 3 4 - - - - 10 Mostly clear - 17.1 1013.4 0.0
03/10:00am NW 5 5 - - - - 10 Partly cloudy - 16.7 1013.8 0.0
03/09:30am WNW 4 6 - - - - 10 Cloudy - 16.7 1014.0 0.0
03/09:00am NW 3 4 - - - - 10 Cloudy - 17.0 1014.3 0.0
03/08:30am CALM 0 0 - - - - 10 Cloudy - 15.0 1014.4 0.0
03/08:00am CALM 0 0 - - - - 10 Partly cloudy - 13.8 1014.6 0.0
03/07:30am CALM 0 0 - - - - 10 Mostly clear - 10.8 1014.5 0.0
03/07:00am CALM 0 0 - - - - 10 Mostly clear - 11.1 1014.4 0.0
03/06:30am NNW 1 3 - - - - 10 Partly cloudy - 11.1 1014.5 0.0
03/06:00am CALM 0 3 - - - - 10 Cloudy - 11.4 1014.5 0.0
03/05:30am NW 4 5 - - - - 10 Mostly clear - 12.3 1014.6 0.0
03/05:00am NW 6 7 - - - - 10 - - 12.1 1014.9 0.0
03/04:30am N 3 4 - - - - 10 - - 12.8 1015.1 0.0
03/04:00am NNW 3 7 - - - - 10 - - 11.4 1015.1 0.0
03/03:30am NW 9 9 - - - - 10 - - 12.6 1015.1 0.0
03/03:00am NW 9 11 - - - - 10 - - 13.3 1015.3 0.0
03/02:30am NW 8 9 - - - - 10 - - 12.8 1015.5 0.0
03/02:00am NW 7 8 - - - - 10 - - 13.7 1015.8 0.0
03/01:30am NW 7 9 - - - - 10 - - 14.7 1015.9 0.0
03/01:00am NW 8 9 - - - - 10 - - 14.1 1016.0 0.0
03/12:30am WNW 5 8 - - - - 10 - - 15.0 1016.1 0.0
03/12:00am NNW 7 9 - - - - 10 - - 16.1 1016.2 0.0
 
Date/Time
EST
Wind Sea
Height
m
Swell Vis
km
Cloud Weather Temp
°C
Press
MSL
hPa
Rain since
9am
mm
Dir  Spd
kts
Gust
kts
Height
m
Period
s
Dir
02/11:30pm WNW 6 8 - - - - 10 - - 14.2 1016.3 0.0
02/11:00pm NNW 6 8 - - - - 10 - - 16.4 1016.3 0.0
02/10:30pm NW 7 9 - - - - 10 - - 15.3 1016.4 0.0
02/10:00pm NNW 7 8 - - - - 10 - - 17.5 1016.7 0.0
02/09:30pm NW 7 9 - - - - 10 - - 17.9 1016.6 0.0
02/09:00pm NW 7 9 - - - - 10 Cloudy - 18.7 1016.5 0.0
02/08:30pm NNW 6 8 - - - - 10 Partly cloudy - 18.5 1016.6 0.0
02/08:00pm NW 7 9 - - - - 10 Partly cloudy - 18.7 1016.6 0.0
02/07:30pm NW 6 8 - - - - 10 - - 17.1 1016.6 0.0
02/07:00pm W 4 6 - - - - 10 - - 16.6 1016.6 0.0
02/06:30pm WNW 3 4 - - - - 10 - - 17.5 1016.6 0.0
02/06:00pm WSW 3 5 - - - - 10 - - 19.4 1016.2 0.0
02/05:30pm N 4 5 - - - - 10 - - 19.1 1016.0 0.0
02/05:00pm N 6 9 - - - - 10 - - 21.2 1016.0 0.0
02/04:30pm N 7 10 - - - - 10 - - 22.3 1015.9 0.0
02/04:00pm N 9 12 - - - - 10 - - 22.9 1015.9 0.0
02/03:30pm NNW 8 13 - - - - 10 - - 23.6 1015.9 0.0
02/03:00pm S 2 5 - - - - 10 Mostly clear - 23.2 1016.0 0.0
02/02:30pm SSE 7 8 - - - - 10 - - 21.0 1016.1 0.0
02/02:00pm SE 9 11 - - - - 10 - - 20.8 1016.2 0.0
02/01:30pm SE 9 11 - - - - 10 - - 21.5 1016.6 0.0
02/01:00pm SE 7 9 - - - - 10 - - 22.3 1017.0 0.0
02/12:30pm SE 8 9 - - - - 10 - - 20.3 1017.6 0.0
02/12:00pm SE 7 9 - - - - 10 - - 21.2 1018.2 0.0
02/11:30am SE 5 6 - - - - 10 - - 21.3 1018.8 0.0
02/11:00am NE 2 5 - - - - 10 - - 21.3 1019.3 0.0
02/10:30am NNW 2 5 - - - - 10 - - 20.5 1019.7 0.0
02/10:00am WSW 3 5 - - - - 10 - - 18.3 1020.0 0.0
02/09:30am W 3 5 - - - - 10 - - 17.0 1020.3 0.0
02/09:00am NW 6 8 - - - - 10 - - 16.2 1020.6 0.0
02/08:30am NNW 1 5 - - - - 10 - - 13.9 1020.7 0.0
02/08:00am NW 7 8 - - - - 10 - - 11.4 1020.8 0.0
02/07:30am NW 5 6 - - - - 10 - - 11.0 1020.8 0.0
02/07:00am WNW 7 9 - - - - 10 - - 10.5 1020.9 0.0
02/06:30am NNW 4 5 - - - - 10 - - 9.5 1020.9 0.0
02/06:00am CALM 0 0 - - - - 10 - - 10.0 1020.9 0.0
02/05:30am CALM 0 0 - - - - 10 - - 10.3 1020.8 0.0
02/05:00am CALM 0 0 - - - - 10 - - 10.4 1020.8 0.0
02/04:30am CALM 0 0 - - - - 10 - - 10.6 1020.7 0.0
02/04:00am SSE 3 4 - - - - 10 - - 11.9 1020.9 0.0
02/03:30am WNW 5 8 - - - - 10 - - 12.6 1020.8 0.0
02/03:00am N 5 5 - - - - 10 - - 14.0 1020.9 0.0
02/02:30am N 5 6 - - - - 10 - - 16.7 1021.2 0.0
02/02:00am N 6 9 - - - - 10 - - 17.1 1021.5 0.0
02/01:30am NNW 8 11 - - - - 10 - - 18.0 1021.6 0.0
02/01:00am N 7 11 - - - - 10 - - 18.2 1021.9 0.0
02/12:30am NNE 5 7 - - - - 10 - - 14.9 1021.9 0.0
02/12:00am N 4 7 - - - - 10 Mostly cloudy - 13.9 1022.0 0.0
 
Date/Time
EST
Wind Sea
Height
m
Swell Vis
km
Cloud Weather Temp
°C
Press
MSL
hPa
Rain since
9am
mm
Dir  Spd
kts
Gust
kts
Height
m
Period
s
Dir
01/11:30pm NW 7 8 - - - - 10 - - 16.5 1022.0 0.0
01/11:00pm NNW 1 4 - - - - 10 - - 12.8 1022.2 0.0
01/10:30pm NNW 1 4 - - - - 10 - - 14.1 1022.6 0.0
01/10:00pm NNW 6 7 - - - - 10 - - 17.8 1022.7 0.0
01/09:30pm NNW 6 8 - - - - 10 - - 17.4 1022.4 0.0
01/09:00pm NW 7 9 - - - - 10 Mostly cloudy - 18.3 1022.1 0.0
01/08:30pm NNW 7 10 - - - - 10 - - 19.3 1021.9 0.0
01/08:00pm NNW 6 9 - - - - 10 - - 19.3 1021.7 0.0
01/07:30pm NNW 6 9 - - - - 10 - - 20.1 1021.5 0.0
01/07:00pm N 10 15 - - - - 10 - - 21.2 1021.2 0.0
01/06:30pm N 8 10 - - - - 10 - - 20.6 1021.1 0.0
01/06:00pm N 8 11 - - - - 10 Mostly cloudy - 21.1 1020.7 0.0
01/05:30pm N 10 13 - - - - 10 - - 22.7 1020.3 0.0
01/05:00pm N 10 14 - - - - 10 - - 23.4 1020.0 0.0
01/04:30pm N 9 14 - - - - 10 - - 24.5 1019.9 0.0
01/04:00pm NNW 7 12 - - - - 10 - - 25.7 1019.9 0.0
01/03:30pm N 5 7 - - - - 10 - - 26.0 1019.9 0.0
01/03:00pm NW 10 13 - - - - 10 - - 26.9 1019.9 0.0
01/02:30pm NW 7 11 - - - - 10 - - 26.8 1020.1 0.0
01/02:00pm NNW 6 10 - - - - 10 - - 26.7 1020.3 0.0
01/01:30pm N 8 11 - - - - 10 - - 25.7 1020.7 0.0
01/01:00pm N 9 13 - - - - 10 - - 25.4 1020.9 0.0
01/12:30pm N 10 14 - - - - 10 - - 24.7 1021.2 0.0
01/12:00pm N 9 13 - - - - 10 Partly cloudy - 24.5 1021.7 0.0
01/11:30am N 8 12 - - - - 10 - - 23.6 1022.2 0.0

Other formats

Comma delimited format used in spreadsheet applications
http://www.bom.gov.au/fwo/IDT60701/IDT60701.94619.axf

JavaScript Object Notation format (JSON) in row-major order
http://www.bom.gov.au/fwo/IDT60701/IDT60701.94619.json

Data quality

Most of these data are generated automatically and are frequently updated. Quality checks on data are not normally performed. It is possible for incorrect values to appear. Refer to information at About Latest Weather Observations and please check the disclaimer before using these data.